createdAt,value
2017-09-29T00:01:42.438Z,64.90
2017-09-29T00:04:09.985Z,64.90
2017-09-29T00:06:38.247Z,65.20
2017-09-29T00:09:05.766Z,65.10
2017-09-29T00:11:33.280Z,65.20
2017-09-29T00:14:01.566Z,65.50
2017-09-29T00:16:29.260Z,65.50
2017-09-29T00:18:56.775Z,65.50
2017-09-29T00:21:25.087Z,65.20
2017-09-29T00:23:52.613Z,65.00
2017-09-29T00:26:20.869Z,64.80
2017-09-29T00:28:48.382Z,64.70
2017-09-29T00:31:15.878Z,64.60
2017-09-29T00:33:43.411Z,64.90
2017-09-29T00:36:10.914Z,64.90
2017-09-29T00:38:38.436Z,65.00
2017-09-29T00:41:05.955Z,65.00
2017-09-29T00:43:33.441Z,64.90
2017-09-29T00:46:00.970Z,64.80
2017-09-29T00:48:29.225Z,65.00
2017-09-29T00:50:56.742Z,65.00
2017-09-29T00:53:24.243Z,65.00
2017-09-29T00:55:52.542Z,65.30
2017-09-29T00:58:20.809Z,65.30
2017-09-29T01:00:49.098Z,65.20
2017-09-29T01:03:16.615Z,65.20
2017-09-29T01:05:44.136Z,65.10
2017-09-29T01:08:11.639Z,64.90
2017-09-29T01:10:39.161Z,64.80
2017-09-29T01:13:06.681Z,64.60
2017-09-29T01:15:34.201Z,64.50
2017-09-29T01:18:01.694Z,64.40
2017-09-29T01:20:29.975Z,64.30
2017-09-29T01:22:58.234Z,64.20
2017-09-29T01:25:25.786Z,64.20
2017-09-29T01:27:53.283Z,64.40
2017-09-29T01:30:20.798Z,64.60
2017-09-29T01:32:48.866Z,64.80
2017-09-29T01:35:16.365Z,64.80
2017-09-29T01:37:44.649Z,65.00
2017-09-29T01:40:12.161Z,64.90
2017-09-29T01:42:39.687Z,65.00
2017-09-29T01:45:07.186Z,65.00
2017-09-29T01:47:34.704Z,65.00
2017-09-29T01:50:02.197Z,64.70
2017-09-29T01:52:29.719Z,64.60
2017-09-29T01:54:57.217Z,64.50
2017-09-29T01:57:24.749Z,64.50
2017-09-29T01:59:52.260Z,64.60
2017-09-29T02:02:20.551Z,64.60
2017-09-29T02:04:48.822Z,64.50
2017-09-29T02:07:17.106Z,64.50
2017-09-29T02:09:45.371Z,64.50
2017-09-29T02:12:13.650Z,64.40
2017-09-29T02:14:41.925Z,64.40
2017-09-29T02:17:10.210Z,64.40
2017-09-29T02:19:38.479Z,64.30
2017-09-29T02:22:06.765Z,64.40
2017-09-29T02:24:35.032Z,64.40
2017-09-29T02:27:03.323Z,64.50
2017-09-29T02:29:30.835Z,64.30
2017-09-29T02:31:58.366Z,64.50
2017-09-29T02:34:25.887Z,64.60
2017-09-29T02:36:54.162Z,64.70
2017-09-29T02:39:22.451Z,64.90
2017-09-29T02:41:50.717Z,65.00
2017-09-29T02:44:19.002Z,65.20
2017-09-29T02:46:47.278Z,65.30
2017-09-29T02:49:15.566Z,65.40
2017-09-29T02:51:43.834Z,65.30
2017-09-29T02:54:12.122Z,65.30
2017-09-29T02:56:44.846Z,65.30
2017-09-29T02:59:13.723Z,65.30
2017-09-29T03:01:43.858Z,65.10
2017-09-29T03:04:12.706Z,65.10
2017-09-29T03:06:40.210Z,65.00
2017-09-29T03:09:07.742Z,65.00
2017-09-29T03:11:35.273Z,65.10
2017-09-29T03:14:03.556Z,65.10
2017-09-29T03:16:31.069Z,65.00
2017-09-29T03:18:58.596Z,65.00
2017-09-29T03:21:26.097Z,65.00
2017-09-29T03:23:53.614Z,64.80
2017-09-29T03:26:21.128Z,64.60
2017-09-29T03:28:48.658Z,64.60
2017-09-29T03:31:16.158Z,64.60
2017-09-29T03:33:44.426Z,64.60
2017-09-29T03:36:12.714Z,64.70
2017-09-29T03:38:40.299Z,64.60
2017-09-29T03:41:07.823Z,64.60
2017-09-29T03:43:36.095Z,64.80
2017-09-29T03:46:04.377Z,65.30
2017-09-29T03:48:32.637Z,64.60
2017-09-29T03:51:00.786Z,64.50
2017-09-29T03:53:29.490Z,64.50
2017-09-29T03:55:58.058Z,64.50
2017-09-29T03:58:26.150Z,64.60
2017-09-29T04:00:53.675Z,64.70
2017-09-29T04:03:21.165Z,64.80
2017-09-29T04:05:48.681Z,65.00
2017-09-29T04:08:16.186Z,65.10
2017-09-29T04:10:43.705Z,65.10
2017-09-29T04:13:11.221Z,65.20
2017-09-29T04:15:39.498Z,65.20
2017-09-29T04:18:07.771Z,65.20
2017-09-29T04:20:35.298Z,65.10
2017-09-29T04:23:02.802Z,65.20
2017-09-29T04:25:31.107Z,65.50
2017-09-29T04:27:58.603Z,65.30
2017-09-29T04:30:26.098Z,65.30
2017-09-29T04:32:54.380Z,65.30
2017-09-29T04:35:22.642Z,65.30
2017-09-29T04:37:50.927Z,65.30
2017-09-29T04:40:19.196Z,65.70
2017-09-29T04:42:47.788Z,65.70
2017-09-29T04:45:16.054Z,65.70
2017-09-29T04:47:44.331Z,66.40
2017-09-29T04:50:11.830Z,65.70
2017-09-29T04:52:39.358Z,65.60
2017-09-29T04:55:07.630Z,65.40
2017-09-29T04:57:35.914Z,65.30
2017-09-29T05:00:04.181Z,65.20
2017-09-29T05:02:32.471Z,65.80
2017-09-29T05:05:00.750Z,65.70
2017-09-29T05:07:29.041Z,65.70
2017-09-29T05:09:56.543Z,65.60
2017-09-29T05:12:24.070Z,65.50
2017-09-29T05:14:51.570Z,65.50
2017-09-29T05:17:19.087Z,65.60
2017-09-29T05:19:46.586Z,65.70
2017-09-29T05:22:14.884Z,65.60
2017-09-29T05:24:42.382Z,65.50
2017-09-29T05:27:10.715Z,65.80
2017-09-29T05:29:38.213Z,65.70
2017-09-29T05:32:06.490Z,66.40
2017-09-29T05:34:34.791Z,66.00
2017-09-29T05:37:02.302Z,66.00
2017-09-29T05:39:29.824Z,66.30
2017-09-29T05:41:57.323Z,67.10
2017-09-29T05:44:24.838Z,67.30
2017-09-29T05:46:52.339Z,67.00
2017-09-29T05:49:19.880Z,67.30
2017-09-29T05:51:47.386Z,67.60
2017-09-29T05:54:15.665Z,67.40
2017-09-29T05:56:43.161Z,67.30
2017-09-29T05:59:10.682Z,67.60
2017-09-29T06:01:38.960Z,69.70
2017-09-29T06:04:07.265Z,69.80
2017-09-29T06:06:34.774Z,69.70
2017-09-29T06:09:02.298Z,69.80
2017-09-29T06:11:29.818Z,69.40
2017-09-29T06:13:58.111Z,68.80
2017-09-29T06:16:25.619Z,68.70
2017-09-29T06:18:53.138Z,69.40
2017-09-29T06:21:20.658Z,70.10
2017-09-29T06:23:48.970Z,69.50
2017-09-29T06:26:16.486Z,69.50
2017-09-29T06:28:44.015Z,69.10
2017-09-29T06:31:11.546Z,68.80
2017-09-29T06:33:39.051Z,68.70
2017-09-29T06:36:06.574Z,68.70
2017-09-29T06:38:34.086Z,68.70
2017-09-29T06:41:01.611Z,68.70
2017-09-29T06:43:29.153Z,68.70
2017-09-29T06:45:56.703Z,68.30
2017-09-29T06:48:24.216Z,68.20
2017-09-29T06:50:51.738Z,68.00
2017-09-29T06:53:19.246Z,67.80
2017-09-29T06:55:47.527Z,67.80
2017-09-29T06:58:15.799Z,67.00
2017-09-29T07:00:43.320Z,66.70
2017-09-29T07:03:10.827Z,67.50
2017-09-29T07:05:39.127Z,66.90
2017-09-29T07:08:06.631Z,66.80
2017-09-29T07:10:34.157Z,66.00
2017-09-29T07:13:01.670Z,65.80
2017-09-29T07:15:29.195Z,65.40
2017-09-29T07:17:56.699Z,65.70
2017-09-29T07:20:24.978Z,65.10
2017-09-29T07:22:53.250Z,65.10
2017-09-29T07:25:23.681Z,65.30
2017-09-29T07:27:53.514Z,65.20
2017-09-29T07:30:21.448Z,65.20
2017-09-29T07:32:48.975Z,65.60
2017-09-29T07:35:16.467Z,66.20
2017-09-29T07:37:44.010Z,65.40
2017-09-29T07:40:11.514Z,64.50
2017-09-29T07:42:39.162Z,63.60
2017-09-29T07:45:07.433Z,63.20
2017-09-29T07:47:34.961Z,63.20
2017-09-29T07:50:02.513Z,63.60
2017-09-29T07:52:30.043Z,63.50
2017-09-29T07:54:57.534Z,63.20
2017-09-29T07:57:25.066Z,63.00
2017-09-29T07:59:53.327Z,63.40
2017-09-29T08:02:21.610Z,64.20
2017-09-29T08:04:49.885Z,63.20
2017-09-29T08:07:17.410Z,63.00
2017-09-29T08:09:45.252Z,62.80
2017-09-29T08:12:12.791Z,63.10
2017-09-29T08:14:40.302Z,63.30
2017-09-29T08:17:08.583Z,63.30
2017-09-29T08:19:36.854Z,63.50
2017-09-29T08:22:05.134Z,63.30
2017-09-29T08:24:33.401Z,62.80
2017-09-29T08:27:00.959Z,62.80
2017-09-29T08:29:28.469Z,63.00
2017-09-29T08:31:55.991Z,63.60
2017-09-29T08:34:24.290Z,62.70
2017-09-29T08:36:51.809Z,62.60
2017-09-29T08:39:19.321Z,62.20
2017-09-29T08:41:46.827Z,62.00
2017-09-29T08:44:14.372Z,62.20
2017-09-29T08:46:41.858Z,59.90
2017-09-29T08:49:10.162Z,59.30
2017-09-29T08:51:37.662Z,59.30
2017-09-29T08:54:05.174Z,59.40
2017-09-29T08:56:32.704Z,59.20
2017-09-29T08:59:00.239Z,58.60
2017-09-29T09:01:28.545Z,58.20
2017-09-29T09:03:56.066Z,58.00
2017-09-29T09:06:23.586Z,57.90
2017-09-29T09:08:51.115Z,58.30
2017-09-29T09:11:18.621Z,57.90
2017-09-29T09:13:46.143Z,58.00
2017-09-29T09:16:13.659Z,57.90
2017-09-29T09:18:41.191Z,57.90
2017-09-29T09:21:08.711Z,58.20
2017-09-29T09:23:36.238Z,57.90
2017-09-29T09:26:03.738Z,58.10
2017-09-29T09:28:32.015Z,57.60
2017-09-29T09:30:59.547Z,57.60
2017-09-29T09:33:27.050Z,57.10
2017-09-29T09:35:55.333Z,57.10
2017-09-29T09:38:22.858Z,57.10
2017-09-29T09:40:50.382Z,56.50
2017-09-29T09:43:17.892Z,55.80
2017-09-29T09:45:46.187Z,56.50
2017-09-29T09:48:14.470Z,56.10
2017-09-29T09:50:41.990Z,56.00
2017-09-29T09:53:09.513Z,56.10
2017-09-29T09:55:37.047Z,56.30
2017-09-29T09:58:04.561Z,55.60
2017-09-29T10:00:32.083Z,55.50
2017-09-29T10:02:59.601Z,56.10
2017-09-29T10:05:27.126Z,55.90
2017-09-29T10:07:54.639Z,55.20
2017-09-29T10:10:22.175Z,55.40
2017-09-29T10:12:49.686Z,55.60
2017-09-29T10:15:17.218Z,55.10
2017-09-29T10:17:44.718Z,55.40
2017-09-29T10:20:12.240Z,55.20
2017-09-29T10:22:39.766Z,55.50
2017-09-29T10:25:07.298Z,55.20
2017-09-29T10:27:34.811Z,55.30
2017-09-29T10:30:02.314Z,55.60
2017-09-29T10:32:29.830Z,55.30
2017-09-29T10:34:58.102Z,55.10
2017-09-29T10:37:25.951Z,55.10
2017-09-29T10:39:53.459Z,55.00
2017-09-29T10:42:21.741Z,54.80
2017-09-29T10:44:49.246Z,54.80
2017-09-29T10:47:16.771Z,54.90
2017-09-29T10:49:44.330Z,54.60
2017-09-29T10:52:11.854Z,53.90
2017-09-29T10:54:39.373Z,53.80
2017-09-29T10:57:06.901Z,54.30
2017-09-29T10:59:35.177Z,54.60
2017-09-29T11:02:03.470Z,54.30
2017-09-29T11:04:30.978Z,54.20
2017-09-29T11:06:58.515Z,54.50
2017-09-29T11:09:26.026Z,53.70
2017-09-29T11:11:54.330Z,53.90
2017-09-29T11:14:21.862Z,53.80
2017-09-29T11:16:50.150Z,54.30
2017-09-29T11:19:18.432Z,54.30
2017-09-29T11:21:45.994Z,54.30
2017-09-29T11:24:13.502Z,54.10
2017-09-29T11:26:41.008Z,53.70
2017-09-29T11:29:09.310Z,53.50
2017-09-29T11:31:36.832Z,53.50
2017-09-29T11:34:04.355Z,53.60
2017-09-29T11:36:31.890Z,53.30
2017-09-29T11:38:59.418Z,53.80
2017-09-29T11:41:27.705Z,53.80
2017-09-29T11:43:55.241Z,53.80
2017-09-29T11:46:22.787Z,53.90
2017-09-29T11:48:50.307Z,53.80
2017-09-29T11:51:17.822Z,53.40
2017-09-29T11:53:45.358Z,54.10
2017-09-29T11:56:12.874Z,54.20
2017-09-29T11:58:40.411Z,53.50
2017-09-29T12:01:08.694Z,54.00
2017-09-29T12:03:36.237Z,53.90
2017-09-29T12:06:03.743Z,53.60
2017-09-29T12:08:31.270Z,53.60
2017-09-29T12:10:58.780Z,53.30
2017-09-29T12:13:26.310Z,53.10
2017-09-29T12:15:53.835Z,53.40
2017-09-29T12:18:22.121Z,54.30
2017-09-29T12:20:50.395Z,54.10
2017-09-29T12:23:17.970Z,54.00
2017-09-29T12:25:45.473Z,53.80
2017-09-29T12:28:12.991Z,54.30
2017-09-29T12:30:41.250Z,54.00
2017-09-29T12:33:08.771Z,54.20
2017-09-29T12:35:36.304Z,54.00
2017-09-29T12:38:03.819Z,53.40
2017-09-29T12:40:32.115Z,53.50
2017-09-29T12:42:59.638Z,53.40
2017-09-29T12:45:27.158Z,53.00
2017-09-29T12:47:54.683Z,52.30
2017-09-29T12:50:22.962Z,52.10
2017-09-29T12:52:51.268Z,51.90
2017-09-29T12:55:18.826Z,51.90
2017-09-29T12:57:46.341Z,51.90
2017-09-29T13:00:13.888Z,51.30
2017-09-29T13:02:41.398Z,51.20
2017-09-29T13:05:08.918Z,51.40
2017-09-29T13:07:37.210Z,51.60
2017-09-29T13:10:05.515Z,51.00
2017-09-29T13:12:33.032Z,51.00
2017-09-29T13:15:00.597Z,51.40
2017-09-29T13:17:28.873Z,51.80
2017-09-29T13:19:57.172Z,51.50
2017-09-29T13:22:24.678Z,51.30
2017-09-29T13:24:52.186Z,51.50
2017-09-29T13:27:19.708Z,51.90
2017-09-29T13:29:47.251Z,51.60
2017-09-29T13:32:14.790Z,51.50
2017-09-29T13:34:42.306Z,51.70
2017-09-29T13:37:10.598Z,51.50
2017-09-29T13:39:38.861Z,52.70
2017-09-29T13:42:07.148Z,51.90
2017-09-29T13:44:35.448Z,52.20
2017-09-29T13:47:02.973Z,52.20
2017-09-29T13:49:31.258Z,52.00
2017-09-29T13:51:59.589Z,51.70
2017-09-29T13:54:27.123Z,51.60
2017-09-29T13:56:54.664Z,52.40
2017-09-29T13:59:22.939Z,52.80
2017-09-29T14:01:50.461Z,52.80
2017-09-29T14:04:17.954Z,51.80
2017-09-29T14:06:46.262Z,52.30
2017-09-29T14:09:13.762Z,52.30
2017-09-29T14:11:41.283Z,51.40
2017-09-29T14:14:08.789Z,51.90
2017-09-29T14:16:36.318Z,52.50
2017-09-29T14:19:03.822Z,53.20
2017-09-29T14:21:32.123Z,54.00
2017-09-29T14:23:59.643Z,54.00
2017-09-29T14:26:27.174Z,54.20
2017-09-29T14:28:54.678Z,54.00
2017-09-29T14:31:22.239Z,54.10
2017-09-29T14:33:50.532Z,53.80
2017-09-29T14:36:18.061Z,53.80
2017-09-29T14:38:45.570Z,53.80
2017-09-29T14:41:13.127Z,53.70
2017-09-29T14:43:40.641Z,53.70
2017-09-29T14:46:08.172Z,53.70
2017-09-29T14:48:35.670Z,53.70
2017-09-29T14:51:03.966Z,53.40
2017-09-29T14:53:31.467Z,53.40
2017-09-29T14:55:58.995Z,53.40
2017-09-29T14:58:26.498Z,53.50
2017-09-29T15:00:54.022Z,53.50
2017-09-29T15:03:21.528Z,53.40
2017-09-29T15:05:49.075Z,53.40
2017-09-29T15:08:16.591Z,54.20
2017-09-29T15:10:44.118Z,53.70
2017-09-29T15:13:12.394Z,54.00
2017-09-29T15:15:40.674Z,54.20
2017-09-29T15:18:08.964Z,54.40
2017-09-29T15:20:36.482Z,54.40
2017-09-29T15:23:04.002Z,54.70
2017-09-29T15:25:31.515Z,54.80
2017-09-29T15:27:59.038Z,54.80
2017-09-29T15:30:26.547Z,54.80
2017-09-29T15:32:54.857Z,55.00
2017-09-29T15:35:22.374Z,55.00
2017-09-29T15:37:50.659Z,54.60
2017-09-29T15:40:18.938Z,54.00
2017-09-29T15:42:47.234Z,53.40
2017-09-29T15:45:14.737Z,53.30
2017-09-29T15:47:42.261Z,53.10
2017-09-29T15:50:09.764Z,53.30
2017-09-29T15:52:37.296Z,53.40
2017-09-29T15:55:04.807Z,53.50
2017-09-29T15:57:33.326Z,53.70
2017-09-29T16:00:00.835Z,53.70
2017-09-29T16:02:30.787Z,53.80
2017-09-29T16:05:04.883Z,53.70
2017-09-29T16:07:32.407Z,53.80
2017-09-29T16:10:00.574Z,53.90
2017-09-29T16:12:28.101Z,54.10
2017-09-29T16:14:55.611Z,54.30
2017-09-29T16:17:23.138Z,54.50
2017-09-29T16:19:50.655Z,54.60
2017-09-29T16:22:18.935Z,54.60
2017-09-29T16:24:46.437Z,54.60
2017-09-29T16:27:13.956Z,54.80
2017-09-29T16:29:41.457Z,54.80
2017-09-29T16:32:09.761Z,55.30
2017-09-29T16:34:37.272Z,55.30
2017-09-29T16:37:04.819Z,55.70
2017-09-29T16:39:32.322Z,55.80
2017-09-29T16:41:59.846Z,56.00
2017-09-29T16:44:27.346Z,56.10
2017-09-29T16:46:54.866Z,55.90
2017-09-29T16:49:22.372Z,56.00
2017-09-29T16:51:49.903Z,56.40
2017-09-29T16:54:17.408Z,56.50
2017-09-29T16:56:45.768Z,56.90
2017-09-29T16:59:14.055Z,56.70
2017-09-29T17:01:42.342Z,56.60
2017-09-29T17:04:09.854Z,56.60
2017-09-29T17:06:37.383Z,56.50
2017-09-29T17:09:04.928Z,56.60
2017-09-29T17:11:32.470Z,56.80
2017-09-29T17:13:59.989Z,56.80
2017-09-29T17:16:27.526Z,56.90
2017-09-29T17:18:55.044Z,57.00
2017-09-29T17:21:23.330Z,57.20
2017-09-29T17:23:50.864Z,57.10
2017-09-29T17:26:18.388Z,57.60
2017-09-29T17:28:45.899Z,57.80
2017-09-29T17:31:14.168Z,57.80
2017-09-29T17:33:42.459Z,57.90
2017-09-29T17:36:10.726Z,58.10
2017-09-29T17:38:39.006Z,58.30
2017-09-29T17:41:07.281Z,58.40
2017-09-29T17:43:35.558Z,58.50
2017-09-29T17:46:03.829Z,58.90
2017-09-29T17:48:32.122Z,58.90
2017-09-29T17:50:59.634Z,58.90
2017-09-29T17:53:27.162Z,59.00
2017-09-29T17:55:54.670Z,59.20
2017-09-29T17:58:22.190Z,59.60
2017-09-29T18:00:49.686Z,59.90
2017-09-29T18:03:17.206Z,59.90
2017-09-29T18:05:44.801Z,60.00
2017-09-29T18:08:12.330Z,59.90
2017-09-29T18:10:39.838Z,59.90
2017-09-29T18:13:08.121Z,60.20
2017-09-29T18:15:36.406Z,60.30
2017-09-29T18:18:04.711Z,60.90
2017-09-29T18:20:32.232Z,61.60
2017-09-29T18:23:01.529Z,60.90
2017-09-29T18:25:29.810Z,60.70
2017-09-29T18:27:58.102Z,60.70
2017-09-29T18:30:25.623Z,60.70
2017-09-29T18:32:53.156Z,61.10
2017-09-29T18:35:20.665Z,61.30
2017-09-29T18:37:48.953Z,61.50
2017-09-29T18:40:20.954Z,61.50
2017-09-29T18:42:49.051Z,61.50
2017-09-29T18:45:16.570Z,61.70
2017-09-29T18:47:44.096Z,61.80
2017-09-29T18:50:12.359Z,62.30
2017-09-29T18:52:39.883Z,62.20
2017-09-29T18:55:07.391Z,62.30
2017-09-29T18:57:34.921Z,62.30
2017-09-29T19:00:03.407Z,62.40
2017-09-29T19:02:30.951Z,62.40
2017-09-29T19:04:58.463Z,62.60
2017-09-29T19:07:26.759Z,62.70
2017-09-29T19:09:54.263Z,62.70
2017-09-29T19:12:21.779Z,62.80
2017-09-29T19:14:49.299Z,62.90
2017-09-29T19:17:17.581Z,63.10
2017-09-29T19:19:45.856Z,63.10
2017-09-29T19:22:13.413Z,63.10
2017-09-29T19:24:40.938Z,63.20
2017-09-29T19:27:08.450Z,63.30
2017-09-29T19:29:35.982Z,63.50
2017-09-29T19:32:03.501Z,63.40
2017-09-29T19:34:31.045Z,63.60
2017-09-29T19:36:58.569Z,63.70
2017-09-29T19:39:26.932Z,63.90
2017-09-29T19:41:54.470Z,63.80
2017-09-29T19:44:22.833Z,63.70
2017-09-29T19:46:50.334Z,63.70
2017-09-29T19:49:17.893Z,63.60
2017-09-29T19:51:45.510Z,63.70
2017-09-29T19:54:13.039Z,63.70
2017-09-29T19:56:41.331Z,63.70
2017-09-29T19:59:08.902Z,63.60
2017-09-29T20:01:36.442Z,63.70
2017-09-29T20:04:04.807Z,63.80
2017-09-29T20:06:33.085Z,63.70
2017-09-29T20:09:01.370Z,63.80
2017-09-29T20:11:29.646Z,63.80
2017-09-29T20:13:57.937Z,63.70
2017-09-29T20:16:25.440Z,63.70
2017-09-29T20:18:53.745Z,63.90
2017-09-29T20:21:21.275Z,64.70
2017-09-29T20:23:48.813Z,64.00
2017-09-29T20:26:16.333Z,64.00
2017-09-29T20:28:44.626Z,64.20
2017-09-29T20:31:12.135Z,64.20
2017-09-29T20:33:39.662Z,64.30
2017-09-29T20:36:07.162Z,64.20
2017-09-29T20:38:34.692Z,64.20
2017-09-29T20:41:02.197Z,64.30
2017-09-29T20:43:30.498Z,64.60
2017-09-29T20:45:58.011Z,64.40
2017-09-29T20:48:25.534Z,64.50
2017-09-29T20:50:53.050Z,64.50
2017-09-29T20:53:21.338Z,65.30
2017-09-29T20:55:48.851Z,64.50
2017-09-29T20:58:16.393Z,64.50
2017-09-29T21:00:43.889Z,64.40
2017-09-29T21:03:11.416Z,64.40
2017-09-29T21:05:38.924Z,64.60
2017-09-29T21:08:07.218Z,64.70
2017-09-29T21:10:35.491Z,64.60
2017-09-29T21:13:03.786Z,64.60
2017-09-29T21:15:31.313Z,64.50
2017-09-29T21:17:58.841Z,64.60
2017-09-29T21:20:26.345Z,64.80
2017-09-29T21:22:53.890Z,64.90
2017-09-29T21:25:22.154Z,64.70
2017-09-29T21:27:49.673Z,64.70
2017-09-29T21:30:17.170Z,64.70
2017-09-29T21:32:44.692Z,64.60
2017-09-29T21:35:12.199Z,64.50
2017-09-29T21:37:40.462Z,64.50
2017-09-29T21:40:07.987Z,64.40
2017-09-29T21:42:35.497Z,64.50
2017-09-29T21:45:03.051Z,64.50
2017-09-29T21:47:30.558Z,64.50
2017-09-29T21:49:58.085Z,64.60
2017-09-29T21:52:25.618Z,65.50
2017-09-29T21:54:53.142Z,64.90
2017-09-29T21:57:20.651Z,64.90
2017-09-29T21:59:48.178Z,64.80
2017-09-29T22:02:15.679Z,64.80
2017-09-29T22:04:43.200Z,65.00
2017-09-29T22:07:10.711Z,64.90
2017-09-29T22:09:38.246Z,64.90
2017-09-29T22:12:06.520Z,64.90
2017-09-29T22:14:34.815Z,65.00
2017-09-29T22:17:03.090Z,64.90
2017-09-29T22:19:31.387Z,64.90
2017-09-29T22:21:58.908Z,64.80
2017-09-29T22:24:27.205Z,65.40
2017-09-29T22:26:54.715Z,64.80
2017-09-29T22:29:22.233Z,65.40
2017-09-29T22:31:49.742Z,64.80
2017-09-29T22:34:17.274Z,64.70
2017-09-29T22:36:44.781Z,64.80
2017-09-29T22:39:13.074Z,64.70
2017-09-29T22:41:40.618Z,64.60
2017-09-29T22:44:08.146Z,64.60
2017-09-29T22:46:35.658Z,64.60
2017-09-29T22:49:03.235Z,64.60
2017-09-29T22:51:30.730Z,64.60
2017-09-29T22:53:59.018Z,64.70
2017-09-29T22:56:26.517Z,64.70
2017-09-29T22:58:54.043Z,64.80
2017-09-29T23:01:21.554Z,64.70
2017-09-29T23:03:49.131Z,64.70
2017-09-29T23:06:16.642Z,64.50
2017-09-29T23:08:44.933Z,64.70
2017-09-29T23:11:12.433Z,64.70
2017-09-29T23:13:40.723Z,64.40
2017-09-29T23:16:08.270Z,64.40
2017-09-29T23:18:35.807Z,64.50
2017-09-29T23:21:03.322Z,64.70
2017-09-29T23:23:31.605Z,64.80
2017-09-29T23:25:59.889Z,64.70
2017-09-29T23:28:27.419Z,64.70
2017-09-29T23:30:54.930Z,64.40
2017-09-29T23:33:23.218Z,64.50
2017-09-29T23:35:50.731Z,64.50
2017-09-29T23:38:18.262Z,64.60
2017-09-29T23:40:45.761Z,64.80
2017-09-29T23:43:13.328Z,64.70
2017-09-29T23:45:41.639Z,64.90
2017-09-29T23:48:09.144Z,64.80
2017-09-29T23:50:36.718Z,64.90
2017-09-29T23:53:04.225Z,64.90
2017-09-29T23:55:31.766Z,64.80
2017-09-29T23:58:00.048Z,65.70
